Whale Point, California Weather observations

Data are for observation ending at time listed.
 Day   Time    Ave.   Ave.  Ave.  Vector   Max.   Stn.    Total    Solar   Ave.  
  of    of     Air    Rel.  Wind   Wind    Wind   Baro.  Precip.   Rad.    Soil  
Year   Day     Temp.  Hum.  Speed  Dir.    Gust   Pres.                    Temp. 
2017   (PST)    F      %     mph   deg.    mph     mb.     in.     W/m2     F   
------------------------------------------------------------------------------
 204   18:40   51.5    94    1.4   232      2.9   989.8    0.00      39    78.9
 204   18:50   51.5    94    0.7   229      2.9   989.8    0.00      43    78.9
 204   19:00   51.5    94    0.2   290      1.2   989.8    0.00      30    79.0
 204   19:10   51.3    94    0.1   168      1.2   989.8    0.00      15    79.0
 204   19:20   51.0    94    0.0   236      0.5   989.8    0.00       6    79.0
 204   19:30   50.8    94    0.2   193      1.4   989.8    0.00       2    79.0
 204   19:40   50.5    94    0.0     0      0.0   989.8    0.00       1    79.0
 204   19:50   50.2    95    0.1   166      1.1   989.8    0.00       0    79.0
 204   20:00   49.9    95    0.6   159      1.5   989.8    0.00       0    79.0
 204   20:10   49.9    95    0.2   164      0.8   989.8    0.00       0    79.0
 204   20:20   49.9    95    0.8   181      1.9   990.2    0.00       0    78.9
 204   20:30   50.0    95    0.7   185      2.3   990.2    0.00       0    78.9
 204   20:40   49.9    95    1.2   207      3.8   990.2    0.00       0    78.8
 204   20:50   49.9    95    1.7   194      3.1   990.2    0.00       0    78.7
 204   21:00   49.8    95    0.4   177      1.5   990.5    0.00       0    78.6
 204   21:10   49.6    95    0.1   212      1.2   990.5    0.00       0    78.5
 204   21:20   49.7    95    1.3   207      3.1   990.5    0.00       0    78.5
 204   21:30   49.8    95    2.1   217      3.1   990.9    0.00       0    78.4
 204   21:40   49.6    95    1.0   227      2.6   990.9    0.00       0    78.3
 204   21:50   49.5    95    0.6   240      1.8   990.9    0.00       0    78.2
 204   22:00   49.5    96    0.2   325      1.1   990.9    0.00       0    78.1
 204   22:10   49.4    96    0.6    16      2.9   990.9    0.00       0    78.0
 204   22:20   49.0    96    0.8     6      3.1   990.9    0.00       0    77.8
 204   22:30   49.0    96    0.9   157      2.6   990.9    0.00       0    77.7
 204   22:40   49.1    96    0.3   170      1.1   990.9    0.00       0    77.6
 204   22:50   48.9    96    0.2    28      1.1   990.9    0.00       0    77.5
 204   23:00   48.7    96    0.3   210      1.7   990.9    0.00       0    77.4
 204   23:10   48.7    96    0.3   207      1.2   990.9    0.00       0    77.3
 204   23:20   48.7    96    1.2     5      2.6   990.9    0.00       0    77.2
 204   23:30   48.5    96    1.1   162      2.3   990.9    0.00       0    77.1
 204   23:40   48.6    96    0.7   232      1.9   990.9    0.00       0    76.9
 204   23:50   48.6    96    0.5    21      2.0   990.9    0.00       0    76.8
 205    0:00   48.2    96    0.7    11      2.3   990.9    0.00       0    76.7
 205    0:10   48.3    96    0.5   152      1.5   990.9    0.00       0    76.6
 205    0:20   48.1    96    0.3    30      1.3   990.9    0.00       0    76.5
 205    0:30   48.0    96    0.0    36      0.7   990.9    0.00       0    76.4
 205    0:40   47.9    96    0.3    31      1.7   990.5    0.00       0    76.3
 205    0:50   47.7    96    0.8   152      3.3   990.5    0.00       0    76.2
 205    1:00   47.9    96    0.7   177      2.6   990.5    0.00       0    76.0
 205    1:10   47.9    96    0.0   234      0.7   990.5    0.00       0    75.9
 205    1:20   48.0    96    0.2   167      1.5   990.5    0.00       0    75.8
 205    1:30   48.0    96    0.2   246      1.4   990.5    0.00       0    75.7
 205    1:40   47.9    96    0.4   241      1.7   990.5    0.00       0    75.6
 205    1:50   48.0    96    1.7   192      3.1   990.5    0.00       0    75.5
 205    2:00   47.8    96    1.6   168      3.9   990.5    0.00       0    75.4
 205    2:10   47.6    96    1.8    43      4.6   990.5    0.00       0    75.3
 205    2:20   47.1    96    1.7    29      3.1   990.2    0.00       0    75.2
 205    2:30   47.0    96    1.5   116      3.1   990.2    0.00       0    75.1
 205    2:40   47.1    96    0.8   192      2.3   990.2    0.00       0    75.0
 205    2:50   47.3    96    0.6    27      1.4   990.2    0.00       0    74.9
 205    3:00   47.1    96    0.6     4      1.6   990.2    0.00       0    74.8
 205    3:10   46.7    96    1.4    22      2.4   990.2    0.00       0    74.7
 205    3:20   46.4    96    0.8   175      2.0   990.2    0.00       0    74.6
 205    3:30   46.4    96    0.9   189      2.0   990.2    0.00       0    74.5
 205    3:40   46.4    97    1.5    20      2.8   990.2    0.00       0    74.4
 205    3:50   46.9    97    1.0   146      2.8   990.2    0.00       0    74.3
 205    4:00   47.5    97    0.6   208      1.7   990.5    0.00       0    74.2
 205    4:10   47.0    97    0.3   199      1.2   990.5    0.00       0    74.1
 205    4:20   46.9    97    0.1     0      0.7   990.5    0.00       0    74.0
 205    4:30   46.7    97    0.2   206      1.2   990.5    0.00       0    73.9
 205    4:40   46.7    97    0.6   139      1.8   990.5    0.00       0    73.8
 205    4:50   46.8    97    0.1    28      1.1   990.5    0.00       0    73.7
 205    5:00   46.8    97    1.8   146      4.8   990.9    0.00       1    73.6
 205    5:10   47.5    97    1.9   178      5.0   990.9    0.00       2    73.5
 205    5:20   47.4    97    1.7   114      4.8   990.9    0.00       5    73.4
 205    5:30   47.0    97    0.6   314      2.0   990.9    0.00       7    73.3
 205    5:40   47.1    97    1.4   173      3.2   990.9    0.00       8    73.2
 205    5:50   47.3    97    0.6    12      1.6   991.2    0.00      12    73.1
 205    6:00   46.9    97    0.6    19      1.2   991.2    0.00      16    73.0
 205    6:10   47.2    97    1.0    32      1.7   991.5    0.00      21    72.9
 205    6:20   47.3    97    0.6    34      3.1   991.5    0.00      29    72.8
 205    6:30   47.5    97    0.9    92      3.6   991.5    0.00      58    72.7
 205    6:40   48.2    97    2.1   201      4.1   991.5    0.00     103    72.6
 205    6:50   48.7    97    1.8   206      4.7   991.9    0.00     127    72.5
 205    7:00   49.1    97    2.6   182      5.8   991.9    0.00     134    72.4
 205    7:10   49.5    97    1.6   249      4.1   991.9    0.00     157    72.3
 205    7:20   49.8    97    0.8   295      2.6   991.9    0.00     170    72.2
 205    7:30   50.4    97    1.4   273      3.3   991.9    0.00     158    72.1
 205    7:40   50.4    97    1.8   338      4.3   992.2    0.00     172    72.1
 205    7:50   50.6    97    1.3   268      2.8   992.2    0.00     174    72.0
 205    8:00   50.0    97    2.2   246      5.8   992.2    0.00     158    71.9
 205    8:10   49.7    97    2.6   242      8.1   992.2    0.00     157    71.9
 205    8:20   49.8    97    1.9   312      5.8   992.2    0.00     185    71.8
 205    8:30   50.3    97    1.3   323      5.1   992.2    0.00     217    71.8
 205    8:40   50.0    97    2.7   258      7.6   992.2    0.00     237    71.7
 205    8:50   49.9    97    3.1   241      6.5   992.2    0.00     249    71.7
 205    9:00   49.9    97    3.6   249      7.7   992.2    0.00     265    71.6
 205    9:10   50.4    97    2.1   275      4.6   992.2    0.00     295    71.6
 205    9:20   50.5    97    2.4   252      7.3   992.2    0.00     315    71.6
 205    9:30   50.4    97    2.9   237      7.5   992.2    0.00     352    71.5
 205    9:40   50.7    97    3.0   232      8.3   992.2    0.00     389    71.5
 205    9:50   50.5    96    4.3   223      9.8   992.2    0.00     354    71.5
 205   10:00   50.8    96    3.9   232      7.8   992.6    0.00     359    71.5
 205   10:10   50.8    96    4.0   231      8.9   992.6    0.00     371    71.5
 205   10:20   51.1    96    4.4   234      9.4   992.9    0.00     370    71.5
 205   10:30   51.4    96    3.8   240      8.0   992.9    0.00     407    71.5
 205   10:40   51.9    96    3.8   228      6.8   992.6    0.00     474    71.5
 205   10:50   51.7    96    5.8   231     11.2   992.6    0.00     467    71.6
 205   11:00   51.9    96    5.3   212      8.5   992.6    0.00     511    71.6
 205   11:10   52.4    95    5.3   228      8.8   992.6    0.00     639    71.6
 205   11:20   52.9    94    5.1   230     10.7   992.6    0.00     656    71.6
 205   11:30   53.9    92    4.6   225      9.5   992.6    0.00     715    71.7
 205   11:40   54.1    90    3.2   218      8.9   992.6    0.00     622    71.7
 205   11:50   54.4    89    3.3   232      9.7   992.6    0.00     566    71.7
 205   12:00   54.0    89    4.8   227      9.4   992.6    0.00     521    71.8
 205   12:10   53.4    91    5.3   235     11.2   992.9    0.00     441    71.9
 205   12:20   53.5    92    4.5   239      9.9   992.9    0.00     416    71.9
 205   12:30   53.8    91    4.8   238      9.3   992.9    0.00     416    72.0
 205   12:40   54.1    91    3.9   234      8.5   992.6    0.00     428    72.1
 205   12:50   53.8    91    5.6   241     10.7   992.6    0.00     390    72.1
 205   13:00   53.7    92    5.4   239     10.6   992.6    0.00     363    72.2
 205   13:10   54.0    92    3.6   244      7.8   992.6    0.00     377    72.3
 205   13:20   54.3    92    3.1   246      7.7   992.6    0.00     370    72.4
 205   13:30   54.4    91    3.4   245      8.1   992.6    0.00     399    72.5
 205   13:40   54.8    90    4.7   239      9.6   992.6    0.00     424    72.5
 205   13:50   54.2    91    5.6   229     10.7   992.6    0.00     405    72.6
 205   14:00   54.3    91    5.2   234      7.5   992.2    0.00     447    72.7
 205   14:10   54.5    91    4.9   223      7.3   992.2    0.00     484    72.8
 205   14:20   54.9    90    5.1   223      8.0   992.2    0.00     427    72.9
 205   14:30   55.1    90    3.1   227      6.6   992.2    0.00     433    72.9
 205   14:40   55.7    88    5.2   225      8.8   991.9    0.00     402    73.0
 205   14:50   54.7    90    5.4   225      8.2   991.9    0.00     392    73.1
 205   15:00   55.0    90    4.6   213      6.9   991.9    0.00     336    73.1
 205   15:10   54.6    90    4.6   224      7.2   991.9    0.00     318    73.2
 205   15:20   54.8    90    3.5   224      6.4   991.9    0.00     347    73.3
 205   15:30   55.1    90    3.7   223      6.4   991.5    0.00     341    73.4
 205   15:40   55.2    89    3.7   225      5.8   991.5    0.00     287    73.5
 205   15:50   54.8    90    4.0   226      7.2   991.5    0.00     246    73.5
 205   16:00   54.7    90    3.5   220      5.3   991.5    0.00     246    73.6
 205   16:10   54.6    90    3.6   225      5.6   991.2    0.00     253    73.7
 205   16:20   54.6    91    3.9   228      5.8   991.2    0.00     276    73.7
 205   16:30   54.6    91    3.2   227      5.1   991.2    0.00     237    73.8
 205   16:40   54.6    91    3.4   224      4.9   991.2    0.00     231    73.8
 205   16:50   54.5    91    3.4   225      4.9   991.2    0.00     192    73.9
 205   17:00   54.6    91    2.8   221      4.2   991.2    0.00     175    73.9
 205   17:10   54.4    91    3.0   222      5.1   991.2    0.00     157    74.0
 205   17:20   54.1    92    3.2   228      4.8   991.2    0.00     125    74.0
 205   17:30   53.8    92    2.3   239      3.9   991.2    0.00     106    74.1
 205   17:40   53.6    93    2.1   237      4.0   991.2    0.00      93    74.1
 205   17:50   53.5    93    2.2   236      3.9   991.2    0.00      77    74.2
 205   18:00   53.3    94    1.0   242      2.1   991.2    0.00     105    74.2
 205   18:10   53.8    94    1.7   348      4.5   991.2    0.00     132    74.2
 205   18:20   55.0    94    1.1   279      3.1   991.2    0.00     157    74.2
 205   18:30   55.3    91    1.2   227      2.5   991.2    0.00      94    74.2

Return to Whale Point graphs page.


Western Regional Climate Center,wrcc@dri.edu